Time;durP1;ratioP1;P1;durP2;ratioP2;P2;SDS_P1;SDS_P2;PMS_P1;PMS_P2;Temp;Humidity;BMP_temperature;BMP_pressure;BME280_temperature;BME280_humidity;BME280_pressure;Samples;Min_cycle;Max_cycle;Signal;HPM_P1;HPM_P2
2022/11/28 00:01:00;;;;;;;15.13;14.13;;;9.60;26.40;;;;;;4967458;28;21522;-51
2022/11/28 00:03:26;;;;;;;15.23;14.23;;;9.60;26.10;;;;;;4969239;28;20233;-52
2022/11/28 00:05:52;;;;;;;15.83;14.70;;;9.40;26.40;;;;;;4964938;28;20542;-51
2022/11/28 00:08:18;;;;;;;14.80;14.00;;;9.30;26.60;;;;;;4966850;28;20336;-50
2022/11/28 00:10:44;;;;;;;14.50;13.60;;;9.20;26.30;;;;;;4963227;28;20234;-49
2022/11/28 00:13:09;;;;;;;14.97;14.00;;;8.90;26.80;;;;;;4967622;28;20487;-59
2022/11/28 00:15:35;;;;;;;14.70;13.80;;;8.80;27.10;;;;;;4969944;28;20228;-59
2022/11/28 00:18:01;;;;;;;14.63;13.73;;;8.60;27.70;;;;;;4962224;28;20232;-54
2022/11/28 00:20:29;;;;;;;15.23;14.33;;;8.50;28.20;;;;;;4967111;28;20265;-51
2022/11/28 00:22:54;;;;;;;15.57;14.57;;;8.20;29.60;;;;;;4965930;28;20463;-51
2022/11/28 00:25:20;;;;;;;16.33;15.43;;;8.20;29.20;;;;;;4965231;28;20453;-53
2022/11/28 00:27:46;;;;;;;16.00;14.97;;;8.30;28.80;;;;;;4972888;28;20229;-50
2022/11/28 00:30:12;;;;;;;16.67;15.60;;;8.30;28.90;;;;;;4980339;28;20178;-53
2022/11/28 00:32:37;;;;;;;15.90;15.00;;;8.20;29.00;;;;;;4981730;28;20569;-53
2022/11/28 00:35:03;;;;;;;15.77;14.77;;;7.90;29.60;;;;;;4981335;28;20441;-52
2022/11/28 00:37:29;;;;;;;15.50;14.60;;;7.80;30.00;;;;;;4982694;28;20209;-53
2022/11/28 00:39:54;;;;;;;16.43;15.43;;;7.80;30.60;;;;;;4981542;28;20452;-59
2022/11/28 00:42:21;;;;;;;15.37;14.47;;;7.90;29.90;;;;;;4984981;28;20217;-59
2022/11/28 00:44:47;;;;;;;16.20;15.20;;;7.90;30.10;;;;;;4983083;28;20192;-59
2022/11/28 00:47:13;;;;;;;17.07;16.07;;;7.90;30.80;;;;;;4985612;28;21424;-60
2022/11/28 00:49:39;;;;;;;17.70;16.60;;;8.10;30.00;;;;;;4984403;28;20515;-60
2022/11/28 00:52:05;;;;;;;15.73;14.73;;;8.30;29.90;;;;;;4983018;28;20469;-60
2022/11/28 00:54:31;;;;;;;17.57;16.40;;;8.30;30.00;;;;;;4984163;28;20496;-59
2022/11/28 00:56:56;;;;;;;16.57;15.40;;;8.20;30.00;;;;;;4980290;28;20174;-52
2022/11/28 00:59:22;;;;;;;16.27;15.27;;;8.10;30.30;;;;;;4981942;28;20178;-52
2022/11/28 01:01:48;;;;;;;15.93;14.93;;;8.00;30.80;;;;;;4981810;28;20185;-54
2022/11/28 01:04:16;;;;;;;16.80;15.80;;;7.80;31.30;;;;;;4981260;28;20197;-52
2022/11/28 01:06:49;;;;;;;17.57;16.47;;;7.90;31.20;;;;;;4980248;28;20233;-54
2022/11/28 01:09:21;;;;;;;16.60;15.50;;;8.00;31.50;;;;;;4980740;28;20447;-53
2022/11/28 01:11:48;;;;;;;17.30;16.30;;;8.10;30.90;;;;;;4982626;28;20523;-53
2022/11/28 01:14:15;;;;;;;15.83;14.83;;;8.30;30.90;;;;;;4981322;28;20507;-51
2022/11/28 01:16:40;;;;;;;16.50;15.50;;;8.50;30.80;;;;;;4980269;28;20480;-50
2022/11/28 01:19:06;;;;;;;16.07;14.97;;;8.70;30.10;;;;;;4982005;28;20426;-59
2022/11/28 01:21:33;;;;;;;15.80;14.87;;;9.00;29.50;;;;;;4982914;28;20178;-60
2022/11/28 01:23:58;;;;;;;15.67;14.83;;;9.20;28.80;;;;;;4983195;28;20482;-48
2022/11/28 01:26:27;;;;;;;14.60;13.70;;;9.30;28.20;;;;;;4981238;28;20525;-50
2022/11/28 01:28:53;;;;;;;14.33;13.50;;;9.50;27.80;;;;;;4982059;28;20213;-52
2022/11/28 01:31:21;;;;;;;15.17;14.27;;;9.50;27.50;;;;;;4982671;28;20406;-53
2022/11/28 01:33:48;;;;;;;16.57;15.47;;;9.60;27.20;;;;;;4981545;28;20501;-52
2022/11/28 01:36:14;;;;;;;14.30;13.50;;;9.70;26.80;;;;;;4979974;28;20417;-51
2022/11/28 01:38:40;;;;;;;14.80;14.00;;;9.80;26.60;;;;;;4979476;28;20451;-55
2022/11/28 01:41:07;;;;;;;15.43;14.43;;;9.80;26.80;;;;;;4981935;28;20921;-52
2022/11/28 01:43:34;;;;;;;14.93;14.13;;;9.70;27.40;;;;;;4977780;28;20428;-53
2022/11/28 01:46:00;;;;;;;15.90;14.90;;;9.70;27.10;;;;;;4979488;28;20473;-53
2022/11/28 01:48:32;;;;;;;15.37;14.47;;;9.50;27.50;;;;;;4978804;28;20501;-54
2022/11/28 01:51:01;;;;;;;15.10;14.20;;;9.60;27.20;;;;;;4981356;28;20413;-53
2022/11/28 01:53:29;;;;;;;14.50;13.70;;;9.70;26.90;;;;;;4982516;28;20508;-50
2022/11/28 01:56:01;;;;;;;15.50;14.60;;;9.70;27.00;;;;;;4980239;28;20559;-54
2022/11/28 01:58:28;;;;;;;15.33;14.43;;;9.70;27.10;;;;;;4980051;28;20460;-52
2022/11/28 02:00:53;;;;;;;14.70;13.90;;;9.70;26.80;;;;;;4980663;28;20785;-51
2022/11/28 02:03:29;;;;;;;15.60;14.67;;;9.80;26.60;;;;;;4978698;28;20436;-53
2022/11/28 02:05:55;;;;;;;16.43;15.40;;;9.90;26.50;;;;;;4979346;28;20255;-54
2022/11/28 02:08:20;;;;;;;14.80;14.00;;;9.80;26.20;;;;;;4978794;28;20471;-52
2022/11/28 02:10:58;;;;;;;15.87;14.77;;;9.60;26.50;;;;;;4979189;28;20506;-54
2022/11/28 02:13:55;;;;;;;14.77;13.97;;;9.50;26.90;;;;;;4979680;28;20554;-53
2022/11/28 02:16:27;;;;;;;15.37;14.47;;;9.20;27.70;;;;;;4978688;28;20452;-53
2022/11/28 02:19:11;;;;;;;15.80;14.90;;;9.10;27.80;;;;;;4981418;28;20508;-53
2022/11/28 02:22:01;;;;;;;16.23;15.03;;;9.00;28.00;;;;;;4978247;28;20436;-52
2022/11/28 02:24:59;;;;;;;14.97;13.97;;;9.00;28.40;;;;;;4978881;28;20921;-52
2022/11/28 02:27:54;;;;;;;15.13;14.30;;;9.10;28.30;;;;;;4978736;28;20830;-58
2022/11/28 02:30:31;;;;;;;14.83;14.03;;;9.00;28.30;;;;;;4981975;28;20512;-59
2022/11/28 02:33:12;;;;;;;14.80;13.90;;;9.00;28.50;;;;;;4982875;28;20471;-59
2022/11/28 02:36:03;;;;;;;16.13;15.10;;;9.00;28.50;;;;;;4979925;28;20937;-59
2022/11/28 02:38:29;;;;;;;15.23;14.17;;;9.10;28.50;;;;;;4980666;28;20420;-59
2022/11/28 02:41:11;;;;;;;14.97;14.17;;;9.20;28.40;;;;;;4980004;28;20791;-59
2022/11/28 02:43:54;;;;;;;15.17;14.37;;;9.00;28.60;;;;;;4980407;28;20193;-59
2022/11/28 02:46:27;;;;;;;14.70;13.80;;;9.10;28.30;;;;;;4980318;28;20429;-59
2022/11/28 02:49:10;;;;;;;15.53;14.47;;;9.00;28.70;;;;;;4980512;28;20469;-59
2022/11/28 02:51:41;;;;;;;14.17;13.27;;;8.90;29.00;;;;;;4965649;28;20581;-59
2022/11/28 02:54:10;;;;;;;15.63;14.50;;;8.80;29.00;;;;;;4981676;28;20409;-59
2022/11/28 02:56:36;;;;;;;14.77;13.57;;;9.00;29.00;;;;;;4980190;28;20984;-59
2022/11/28 02:59:02;;;;;;;14.57;13.67;;;9.10;28.90;;;;;;4980093;28;20519;-60
2022/11/28 03:01:35;;;;;;;14.73;13.87;;;9.30;28.10;;;;;;4981059;28;20504;-60
2022/11/28 03:04:22;;;;;;;14.37;13.57;;;9.30;27.90;;;;;;4980351;28;20429;-59
2022/11/28 03:07:02;;;;;;;15.50;14.50;;;9.50;27.40;;;;;;4982323;28;20580;-60
2022/11/28 03:09:46;;;;;;;14.60;13.80;;;9.50;27.30;;;;;;4979245;28;20432;-54
2022/11/28 03:12:28;;;;;;;14.60;13.80;;;9.40;27.20;;;;;;4978780;28;20917;-51
2022/11/28 03:14:58;;;;;;;14.00;13.20;;;9.30;27.60;;;;;;4978826;28;20425;-51
2022/11/28 03:17:31;;;;;;;15.17;14.27;;;9.30;27.60;;;;;;4980211;28;20425;-59
2022/11/28 03:20:33;;;;;;;16.10;15.10;;;9.30;27.50;;;;;;4982265;28;20425;-59
2022/11/28 03:23:08;;;;;;;14.50;13.70;;;9.40;27.10;;;;;;4981237;28;20471;-52
2022/11/28 03:25:53;;;;;;;15.43;14.60;;;9.20;27.20;;;;;;4979826;28;20428;-55
2022/11/28 03:28:34;;;;;;;14.23;13.43;;;9.30;27.20;;;;;;4981290;28;20464;-60
2022/11/28 03:31:06;;;;;;;14.10;13.30;;;9.10;27.50;;;;;;4980836;28;20456;-59
2022/11/28 03:33:37;;;;;;;14.37;13.47;;;9.10;27.70;;;;;;4981118;28;20422;-59
2022/11/28 03:36:20;;;;;;;14.90;14.00;;;9.20;27.70;;;;;;4981212;28;20507;-59
2022/11/28 03:38:53;;;;;;;15.43;14.53;;;9.20;27.50;;;;;;4981889;28;20425;-58
2022/11/28 03:41:32;;;;;;;13.83;13.03;;;9.30;27.20;;;;;;4980798;28;20421;-59
2022/11/28 03:43:59;;;;;;;15.17;14.27;;;9.10;27.40;;;;;;4980730;28;20436;-59
2022/11/28 03:46:33;;;;;;;14.60;13.80;;;9.00;27.60;;;;;;4980154;28;21422;-59
2022/11/28 03:49:01;;;;;;;15.97;14.97;;;8.60;28.40;;;;;;4980531;28;21453;-58
2022/11/28 03:51:27;;;;;;;14.13;13.43;;;8.30;29.50;;;;;;4981151;28;20475;-58
2022/11/28 03:54:14;;;;;;;14.97;14.13;;;8.20;29.90;;;;;;4982038;28;20787;-58
2022/11/28 03:56:42;;;;;;;15.90;14.90;;;8.30;29.90;;;;;;4979457;28;20185;-58
2022/11/28 03:59:10;;;;;;;15.70;14.83;;;8.50;29.10;;;;;;4981961;28;20520;-58
2022/11/28 04:01:46;;;;;;;15.03;14.27;;;8.60;29.10;;;;;;4981507;28;20937;-59
2022/11/28 04:04:40;;;;;;;15.20;14.40;;;8.60;29.10;;;;;;4983150;28;20490;-60
2022/11/28 04:07:24;;;;;;;15.57;14.67;;;8.70;29.10;;;;;;4985307;28;20433;-54
2022/11/28 04:10:01;;;;;;;15.83;15.00;;;8.90;29.20;;;;;;4981709;28;20425;-50
2022/11/28 04:12:33;;;;;;;15.23;14.30;;;9.20;28.80;;;;;;4982600;28;20851;-53
2022/11/28 04:15:14;;;;;;;15.60;14.53;;;9.40;28.20;;;;;;4983452;28;20421;-53
2022/11/28 04:18:09;;;;;;;15.80;14.90;;;9.50;28.20;;;;;;4982785;28;20439;-52
2022/11/28 04:20:41;;;;;;;15.03;14.17;;;9.70;27.80;;;;;;4981544;28;20532;-52
2022/11/28 04:23:11;;;;;;;14.27;13.47;;;9.80;27.30;;;;;;4982341;28;20728;-54
2022/11/28 04:25:46;;;;;;;14.87;13.97;;;9.90;26.60;;;;;;4982870;28;20416;-54
2022/11/28 04:28:17;;;;;;;14.37;13.47;;;9.90;26.80;;;;;;4982634;28;20957;-54
2022/11/28 04:30:46;;;;;;;14.77;14.03;;;9.90;25.90;;;;;;4982613;28;20424;-53
2022/11/28 04:33:15;;;;;;;14.17;13.27;;;9.70;26.70;;;;;;4984010;28;20512;-52
2022/11/28 04:35:45;;;;;;;14.40;13.50;;;9.80;26.40;;;;;;4984534;28;20413;-53
2022/11/28 04:38:12;;;;;;;14.37;13.67;;;9.90;26.20;;;;;;4984025;28;20428;-53
2022/11/28 04:40:47;;;;;;;14.00;13.20;;;9.90;26.30;;;;;;4984212;28;20440;-50
2022/11/28 04:43:19;;;;;;;13.90;13.10;;;9.90;26.50;;;;;;4985490;28;20538;-53
2022/11/28 04:45:50;;;;;;;13.87;12.83;;;9.90;26.20;;;;;;4985899;28;20429;-56
2022/11/28 04:48:16;;;;;;;13.77;12.87;;;9.80;26.20;;;;;;4985331;28;20840;-52
2022/11/28 04:50:58;;;;;;;13.90;13.17;;;9.70;26.80;;;;;;4985140;28;20793;-53
2022/11/28 04:53:35;;;;;;;13.77;12.87;;;9.60;27.40;;;;;;4987554;28;20417;-50
2022/11/28 04:56:10;;;;;;;13.63;12.93;;;9.70;27.30;;;;;;4987338;28;20420;-53
2022/11/28 04:58:42;;;;;;;13.50;12.70;;;10.00;26.20;;;;;;4988318;28;20425;-51
2022/11/28 05:01:13;;;;;;;12.97;12.27;;;10.10;25.90;;;;;;4987689;28;20421;-59
2022/11/28 05:03:39;;;;;;;14.77;13.97;;;10.20;25.80;;;;;;4987820;28;20521;-60
2022/11/28 05:06:07;;;;;;;15.17;14.37;;;10.20;25.40;;;;;;4989243;28;20472;-59
2022/11/28 05:08:32;;;;;;;14.63;13.73;;;10.30;25.00;;;;;;4990036;28;20477;-59
2022/11/28 05:10:58;;;;;;;13.90;13.10;;;10.30;24.80;;;;;;4988342;28;20828;-60
2022/11/28 05:13:23;;;;;;;14.80;13.90;;;10.30;24.80;;;;;;4989789;28;20654;-59
2022/11/28 05:15:49;;;;;;;14.17;13.30;;;10.30;24.70;;;;;;4990032;28;20182;-59
2022/11/28 05:18:15;;;;;;;15.27;14.37;;;10.30;25.00;;;;;;4990896;28;20182;-60
2022/11/28 05:20:40;;;;;;;14.73;13.93;;;10.10;25.20;;;;;;4992177;28;20264;-59
2022/11/28 05:23:06;;;;;;;16.00;15.07;;;9.70;26.60;;;;;;4990891;28;20213;-59
2022/11/28 05:25:32;;;;;;;15.13;14.30;;;9.70;27.10;;;;;;4992166;28;20553;-59
2022/11/28 05:27:57;;;;;;;14.40;13.60;;;9.80;27.60;;;;;;4991092;28;20198;-53
2022/11/28 05:30:23;;;;;;;15.00;14.00;;;9.70;27.20;;;;;;4990093;28;20905;-61
2022/11/28 05:32:49;;;;;;;14.03;13.33;;;9.80;27.50;;;;;;4990442;28;20627;-61
2022/11/28 05:35:14;;;;;;;14.13;13.33;;;9.90;27.10;;;;;;4991577;28;20192;-65
2022/11/28 05:37:40;;;;;;;15.17;14.37;;;10.00;26.10;;;;;;4991528;28;20273;-60
2022/11/28 05:40:06;;;;;;;15.10;14.17;;;10.00;25.80;;;;;;4991601;28;20660;-61
2022/11/28 05:42:33;;;;;;;14.83;13.93;;;10.10;25.70;;;;;;4991255;28;20651;-61
2022/11/28 05:44:59;;;;;;;15.50;14.40;;;10.00;25.90;;;;;;4991135;28;20425;-60
2022/11/28 05:47:25;;;;;;;15.40;14.60;;;10.00;25.90;;;;;;4992366;28;20536;-61
2022/11/28 05:49:50;;;;;;;14.93;13.97;;;10.10;25.90;;;;;;4990118;28;20886;-61
2022/11/28 05:52:16;;;;;;;13.20;12.60;;;10.00;25.50;;;;;;4992365;28;20676;-60
2022/11/28 05:54:42;;;;;;;14.33;13.37;;;10.00;25.40;;;;;;4991633;28;20178;-61
2022/11/28 05:57:07;;;;;;;14.03;13.10;;;10.00;25.20;;;;;;4989649;28;20273;-60
2022/11/28 05:59:34;;;;;;;12.57;11.97;;;10.00;25.00;;;;;;4990834;28;20182;-60
2022/11/28 06:02:00;;;;;;;12.70;12.10;;;10.00;24.60;;;;;;4992404;28;20557;-60
2022/11/28 06:04:25;;;;;;;12.33;11.73;;;10.00;24.70;;;;;;4992044;28;20425;-60
2022/11/28 06:06:51;;;;;;;12.60;11.80;;;10.00;24.60;;;;;;4991729;28;20178;-61
2022/11/28 06:09:17;;;;;;;13.70;13.00;;;10.00;24.80;;;;;;4990796;28;20694;-61
2022/11/28 06:11:43;;;;;;;12.13;11.53;;;10.00;24.60;;;;;;4989596;28;20439;-61
2022/11/28 06:14:10;;;;;;;13.10;12.40;;;10.00;24.70;;;;;;4991196;28;20337;-60
2022/11/28 06:16:36;;;;;;;14.17;13.30;;;10.00;24.70;;;;;;4990450;28;20627;-60
2022/11/28 06:19:03;;;;;;;14.20;13.13;;;10.00;24.70;;;;;;4991795;28;20432;-61
2022/11/28 06:21:30;;;;;;;12.80;12.20;;;9.90;26.40;;;;;;4992699;28;20318;-60
2022/11/28 06:23:57;;;;;;;13.20;12.50;;;9.90;26.00;;;;;;4993030;28;20853;-61
2022/11/28 06:26:24;;;;;;;14.53;13.73;;;9.90;26.20;;;;;;4989708;28;20452;-60
2022/11/28 06:28:49;;;;;;;13.63;12.83;;;10.00;25.30;;;;;;4989411;28;20475;-61
2022/11/28 06:31:20;;;;;;;13.03;12.37;;;10.10;25.00;;;;;;4990642;28;20421;-61
2022/11/28 06:33:46;;;;;;;13.37;12.73;;;10.10;24.90;;;;;;4991557;28;20545;-60
2022/11/28 06:36:13;;;;;;;13.43;12.60;;;10.20;25.00;;;;;;4991815;28;20413;-60
2022/11/28 06:38:39;;;;;;;13.70;13.00;;;10.20;24.90;;;;;;4992117;28;20457;-60
2022/11/28 06:41:08;;;;;;;13.53;12.77;;;10.20;24.90;;;;;;4990910;28;20425;-60
2022/11/28 06:43:34;;;;;;;14.10;13.40;;;10.20;25.30;;;;;;4991333;28;20433;-61
2022/11/28 06:46:00;;;;;;;14.63;13.73;;;10.20;25.10;;;;;;4990747;28;20425;-60
2022/11/28 06:48:26;;;;;;;13.90;13.20;;;10.20;25.20;;;;;;4991406;28;20524;-60
2022/11/28 06:50:52;;;;;;;14.63;13.73;;;10.30;25.30;;;;;;4990870;28;20511;-60
2022/11/28 06:53:18;;;;;;;13.27;12.57;;;10.20;25.20;;;;;;4991433;28;20428;-60
2022/11/28 06:55:45;;;;;;;14.13;13.43;;;10.30;25.60;;;;;;4990024;28;20429;-62
2022/11/28 06:58:11;;;;;;;15.00;14.00;;;10.30;25.50;;;;;;4992141;28;20842;-62
2022/11/28 07:00:37;;;;;;;14.13;13.33;;;10.30;25.30;;;;;;4988472;28;20468;-62
2022/11/28 07:03:03;;;;;;;14.60;13.80;;;10.30;25.50;;;;;;4984246;28;20457;-62
2022/11/28 07:05:29;;;;;;;13.90;13.10;;;10.20;25.50;;;;;;4991007;28;20672;-62
2022/11/28 07:07:56;;;;;;;14.80;13.67;;;10.20;25.50;;;;;;4983990;28;20202;-63
2022/11/28 07:10:23;;;;;;;14.93;14.13;;;10.20;25.60;;;;;;4991014;28;20520;-63
2022/11/28 07:12:53;;;;;;;16.50;15.43;;;10.20;25.70;;;;;;4985944;28;20437;-62
2022/11/28 07:15:19;;;;;;;15.13;14.23;;;9.90;27.40;;;;;;4985616;28;20437;-59
2022/11/28 07:17:45;;;;;;;15.90;15.00;;;9.80;27.50;;;;;;4988076;28;20549;-59
2022/11/28 07:20:11;;;;;;;15.43;14.47;;;9.60;27.90;;;;;;4990232;28;20182;-60
2022/11/28 07:22:36;;;;;;;14.90;14.00;;;9.50;28.40;;;;;;4986893;28;20272;-58
2022/11/28 07:25:03;;;;;;;15.47;14.60;;;9.40;28.30;;;;;;4989308;28;20528;-59
2022/11/28 07:27:28;;;;;;;15.60;14.80;;;9.40;28.70;;;;;;4983391;28;20632;-60
2022/11/28 07:29:54;;;;;;;16.10;15.00;;;9.60;28.40;;;;;;4970483;28;20520;-60
2022/11/28 07:32:19;;;;;;;15.53;14.53;;;9.80;28.00;;;;;;4984964;28;20188;-51
2022/11/28 07:34:46;;;;;;;16.33;15.23;;;9.90;27.90;;;;;;4990177;28;20626;-49
2022/11/28 07:37:15;;;;;;;15.87;14.77;;;10.00;27.10;;;;;;4988870;28;20185;-50
2022/11/28 07:39:43;;;;;;;15.50;14.40;;;10.00;26.90;;;;;;4988866;28;20425;-50
2022/11/28 07:42:10;;;;;;;15.50;14.50;;;10.00;27.00;;;;;;4990008;28;20905;-52
2022/11/28 07:44:35;;;;;;;15.23;14.27;;;10.10;26.80;;;;;;4990455;28;20802;-51
2022/11/28 07:47:02;;;;;;;14.33;13.53;;;10.10;26.60;;;;;;4989310;28;20425;-52
2022/11/28 07:49:27;;;;;;;15.17;14.20;;;10.20;26.70;;;;;;4989395;28;20174;-51
2022/11/28 07:51:53;;;;;;;15.83;14.83;;;10.20;26.70;;;;;;4990346;28;20515;-52
2022/11/28 07:54:19;;;;;;;14.30;13.50;;;10.30;26.70;;;;;;4991116;28;20178;-51
2022/11/28 07:56:44;;;;;;;14.73;13.93;;;10.20;26.80;;;;;;4989863;28;20178;-49
2022/11/28 07:59:11;;;;;;;14.33;13.23;;;10.20;26.80;;;;;;4990353;28;20220;-53
2022/11/28 08:01:37;;;;;;;15.20;14.13;;;10.30;26.60;;;;;;4989407;28;20186;-53
2022/11/28 08:04:04;;;;;;;16.97;15.23;;;10.30;26.80;;;;;;4984088;28;20932;-50
2022/11/28 08:06:33;;;;;;;16.87;15.10;;;10.30;26.30;;;;;;4990691;28;20440;-51
2022/11/28 08:09:00;;;;;;;17.10;15.40;;;10.20;26.50;;;;;;4989838;28;20827;-51
2022/11/28 08:11:28;;;;;;;16.10;15.10;;;10.20;26.30;;;;;;4989047;28;20417;-52
2022/11/28 08:13:56;;;;;;;16.20;15.00;;;10.20;26.10;;;;;;4988493;28;20867;-49
2022/11/28 08:16:23;;;;;;;16.23;15.23;;;10.30;26.30;;;;;;4990191;28;20897;-50
2022/11/28 08:18:50;;;;;;;16.10;14.87;;;10.30;26.40;;;;;;4991051;28;20436;-52
2022/11/28 08:21:28;;;;;;;16.77;15.67;;;10.30;26.00;;;;;;4990454;28;20854;-52
2022/11/28 08:23:57;;;;;;;17.87;16.30;;;10.30;26.10;;;;;;4991126;28;20425;-51
2022/11/28 08:26:24;;;;;;;16.67;15.20;;;10.40;26.40;;;;;;4990959;28;20865;-51
2022/11/28 08:28:52;;;;;;;16.50;15.40;;;10.30;26.40;;;;;;4990056;28;20952;-51
2022/11/28 08:31:23;;;;;;;15.10;14.20;;;10.40;26.20;;;;;;4989949;28;20419;-52
2022/11/28 08:33:50;;;;;;;15.57;14.13;;;10.40;26.20;;;;;;4989523;28;20453;-51
2022/11/28 08:36:18;;;;;;;15.33;14.03;;;10.40;26.10;;;;;;4988235;28;20512;-52
2022/11/28 08:38:45;;;;;;;14.97;13.97;;;10.50;26.30;;;;;;5004277;28;20424;-54
2022/11/28 08:41:13;;;;;;;13.90;13.10;;;10.50;26.10;;;;;;5008029;28;20455;-53
2022/11/28 08:43:39;;;;;;;13.70;12.57;;;10.50;25.10;;;;;;5008339;28;20456;-52
2022/11/28 08:46:09;;;;;;;13.10;12.40;;;10.50;25.20;;;;;;5010333;28;20774;-53
2022/11/28 08:48:36;;;;;;;13.77;12.90;;;10.50;25.00;;;;;;5009704;28;20470;-52
2022/11/28 08:51:03;;;;;;;13.67;12.87;;;10.60;25.40;;;;;;5013066;28;20856;-52
2022/11/28 08:53:29;;;;;;;13.63;12.67;;;10.60;25.00;;;;;;5013460;28;20470;-52
2022/11/28 08:55:55;;;;;;;12.50;11.70;;;10.70;24.80;;;;;;5015046;28;20412;-53
2022/11/28 08:58:21;;;;;;;12.80;12.10;;;10.70;24.60;;;;;;5013469;28;20447;-50
2022/11/28 09:00:47;;;;;;;12.90;12.23;;;10.80;24.70;;;;;;5011764;28;20413;-52
2022/11/28 09:03:15;;;;;;;13.40;12.70;;;10.70;24.20;;;;;;5011145;28;20208;-52
2022/11/28 09:05:44;;;;;;;14.63;13.57;;;10.80;24.10;;;;;;5011678;28;20439;-51
2022/11/28 09:08:10;;;;;;;12.80;12.00;;;10.80;24.30;;;;;;5013768;28;20531;-51
2022/11/28 09:10:36;;;;;;;13.90;13.00;;;10.80;25.00;;;;;;5013028;28;20413;-51
2022/11/28 09:13:02;;;;;;;15.30;14.20;;;10.80;25.00;;;;;;5013089;28;20181;-50
2022/11/28 09:15:28;;;;;;;15.80;14.20;;;10.80;24.70;;;;;;5013630;28;20412;-54
2022/11/28 09:17:54;;;;;;;13.70;12.80;;;10.60;25.30;;;;;;5013815;28;20432;-53
2022/11/28 09:20:20;;;;;;;14.63;13.63;;;10.70;26.00;;;;;;5013205;28;20185;-52
2022/11/28 09:22:46;;;;;;;16.83;15.67;;;10.70;25.40;;;;;;5013946;28;20185;-50
2022/11/28 09:25:13;;;;;;;15.13;14.13;;;10.50;25.10;;;;;;5011730;28;20412;-50
2022/11/28 09:27:38;;;;;;;16.93;15.60;;;10.40;25.90;;;;;;5011856;28;20503;-55
2022/11/28 09:30:06;;;;;;;15.67;14.43;;;10.30;25.90;;;;;;5011841;28;20808;-52
2022/11/28 09:32:32;;;;;;;16.40;15.00;;;10.30;26.10;;;;;;5011417;28;20603;-51
2022/11/28 09:34:57;;;;;;;17.07;15.80;;;10.30;25.70;;;;;;5012281;28;20413;-54
2022/11/28 09:37:23;;;;;;;17.73;16.40;;;10.30;25.90;;;;;;5011422;28;20929;-52
2022/11/28 09:39:50;;;;;;;17.87;16.53;;;10.20;25.90;;;;;;4998947;28;20170;-54
2022/11/28 09:42:16;;;;;;;18.50;17.00;;;10.20;26.50;;;;;;4991664;28;20264;-52
2022/11/28 09:44:48;;;;;;;17.93;16.50;;;10.10;26.90;;;;;;4992114;28;20512;-54
2022/11/28 09:47:35;;;;;;;16.67;15.57;;;10.20;27.70;;;;;;4989668;28;20256;-51
2022/11/28 09:50:09;;;;;;;16.87;15.77;;;10.30;27.40;;;;;;4991079;28;20508;-54
2022/11/28 09:53:00;;;;;;;16.87;15.77;;;10.40;26.20;;;;;;4990244;28;20445;-54
2022/11/28 09:55:38;;;;;;;17.37;15.97;;;10.50;25.90;;;;;;4991475;28;20405;-51
2022/11/28 09:58:29;;;;;;;15.23;14.27;;;10.50;26.10;;;;;;4989770;28;20413;-53
2022/11/28 10:01:40;;;;;;;15.77;14.67;;;10.40;26.10;;;;;;4988501;28;20793;-53
2022/11/28 10:04:21;;;;;;;17.67;16.03;;;10.50;26.90;;;;;;4977503;28;20425;-53
2022/11/28 10:06:56;;;;;;;16.27;15.17;;;10.50;27.10;;;;;;4991213;28;20960;-51
2022/11/28 10:09:25;;;;;;;17.27;15.90;;;10.50;26.50;;;;;;4990404;28;20506;-54
2022/11/28 10:12:27;;;;;;;16.00;14.87;;;10.30;26.70;;;;;;4989249;28;20428;-52
2022/11/28 10:15:02;;;;;;;17.83;16.50;;;10.30;27.00;;;;;;4990021;28;20976;-54
2022/11/28 10:17:51;;;;;;;16.33;15.10;;;10.40;27.40;;;;;;4989098;28;20417;-53
2022/11/28 10:20:19;;;;;;;18.17;16.77;;;10.50;26.80;;;;;;4989847;28;21028;-52
2022/11/28 10:22:59;;;;;;;16.93;15.63;;;10.60;26.50;;;;;;4989392;28;20523;-50
2022/11/28 10:25:29;;;;;;;17.37;16.23;;;10.60;26.10;;;;;;4989292;28;20425;-53
2022/11/28 10:27:56;;;;;;;18.10;16.70;;;10.60;26.30;;;;;;4984116;28;20462;-53
2022/11/28 10:30:24;;;;;;;18.40;16.60;;;10.80;26.20;;;;;;4990216;28;20417;-50
2022/11/28 10:32:56;;;;;;;17.80;16.50;;;10.80;26.10;;;;;;4990106;28;20491;-55
2022/11/28 10:35:45;;;;;;;17.03;16.03;;;10.90;25.60;;;;;;4967906;28;20512;-52
2022/11/28 10:38:15;;;;;;;17.77;16.47;;;10.90;25.50;;;;;;4969648;28;20430;-51
2022/11/28 10:40:51;;;;;;;16.50;15.20;;;10.90;25.30;;;;;;4970759;28;20424;-53
2022/11/28 10:43:17;;;;;;;16.70;15.53;;;10.80;25.90;;;;;;4970535;28;20864;-53
2022/11/28 10:46:12;;;;;;;17.37;15.90;;;10.80;26.10;;;;;;4971912;28;20459;-55
2022/11/28 10:48:58;;;;;;;16.03;15.00;;;10.80;27.00;;;;;;4971388;28;20641;-53
2022/11/28 10:52:25;;;;;;;18.20;16.80;;;10.80;26.10;;;;;;4969447;28;20410;-53
2022/11/28 10:54:59;;;;;;;18.40;17.03;;;10.60;26.10;;;;;;4877764;29;20429;-50
2022/11/28 10:57:39;;;;;;;17.77;16.40;;;10.60;26.30;;;;;;4893872;29;20922;-52
2022/11/28 11:00:17;;;;;;;16.40;15.40;;;10.50;26.50;;;;;;4954570;28;20454;-54
2022/11/28 11:02:45;;;;;;;17.30;16.20;;;10.60;26.60;;;;;;4971580;28;20418;-55
2022/11/28 11:05:15;;;;;;;16.47;15.30;;;10.50;26.40;;;;;;4969739;28;20946;-54
2022/11/28 11:07:49;;;;;;;17.10;15.90;;;10.40;26.50;;;;;;4972125;28;20450;-52
2022/11/28 11:10:18;;;;;;;18.20;16.83;;;10.40;26.70;;;;;;4970397;28;20409;-52
2022/11/28 11:12:44;;;;;;;17.00;15.80;;;10.40;26.90;;;;;;4970886;28;20422;-50
2022/11/28 11:15:20;;;;;;;17.60;16.40;;;10.40;27.00;;;;;;4970991;28;20402;-51
2022/11/28 11:17:46;;;;;;;18.33;16.93;;;10.40;26.80;;;;;;4982505;28;20420;-54
2022/11/28 11:20:36;;;;;;;17.70;16.50;;;10.40;26.90;;;;;;4987330;28;20433;-54
2022/11/28 11:23:19;;;;;;;18.10;16.73;;;10.50;26.80;;;;;;4989901;28;20405;-51
2022/11/28 11:25:57;;;;;;;18.23;16.97;;;10.60;26.80;;;;;;4972020;28;20930;-53
2022/11/28 11:28:45;;;;;;;19.27;17.93;;;10.60;26.70;;;;;;4975127;28;20457;-50
2022/11/28 11:31:23;;;;;;;19.50;18.10;;;10.50;27.80;;;;;;4986481;28;20432;-49
2022/11/28 11:34:04;;;;;;;18.37;17.13;;;10.40;28.50;;;;;;4990323;28;20833;-54
2022/11/28 11:36:35;;;;;;;19.00;17.60;;;10.60;28.00;;;;;;4991676;28;20774;-52
2022/11/28 11:39:10;;;;;;;18.40;17.20;;;10.80;27.90;;;;;;4991574;28;20505;-52
2022/11/28 11:41:46;;;;;;;18.13;16.83;;;10.90;28.20;;;;;;4991307;28;20421;-54
2022/11/28 11:44:21;;;;;;;17.00;15.90;;;11.00;29.30;;;;;;4991636;28;20848;-53
2022/11/28 11:47:01;;;;;;;19.53;17.80;;;11.10;29.10;;;;;;4991423;28;20503;-54
2022/11/28 11:49:30;;;;;;;17.67;16.47;;;11.20;28.80;;;;;;4991330;28;20464;-52
2022/11/28 11:52:02;;;;;;;20.50;18.80;;;11.20;28.70;;;;;;4990766;28;20425;-52
2022/11/28 11:54:28;;;;;;;19.13;17.53;;;11.30;28.80;;;;;;4991364;28;20495;-53
2022/11/28 11:56:57;;;;;;;19.13;17.83;;;11.30;28.80;;;;;;4991126;28;20425;-54
2022/11/28 11:59:44;;;;;;;17.87;16.47;;;11.30;28.50;;;;;;4991360;28;20445;-53
2022/11/28 12:02:37;;;;;;;29.53;18.20;;;11.30;30.00;;;;;;4990749;28;20961;-55
2022/11/28 12:05:23;;;;;;;20.30;18.30;;;11.10;29.70;;;;;;4991066;28;20479;-53
2022/11/28 12:08:11;;;;;;;20.17;18.77;;;10.80;29.50;;;;;;4991047;28;20997;-54
2022/11/28 12:10:52;;;;;;;19.80;18.40;;;10.70;30.20;;;;;;4990635;28;20417;-51
2022/11/28 12:13:23;;;;;;;18.43;17.17;;;10.70;30.80;;;;;;4991127;28;20412;-54
2022/11/28 12:16:02;;;;;;;18.63;17.40;;;10.80;31.40;;;;;;4991130;28;20413;-51
2022/11/28 12:18:49;;;;;;;20.50;19.00;;;11.00;32.40;;;;;;4991186;28;20420;-54
2022/11/28 12:21:44;;;;;;;17.77;16.57;;;11.10;32.50;;;;;;4990611;28;20409;-53
2022/11/28 12:24:14;;;;;;;17.50;16.40;;;11.20;31.30;;;;;;4956166;28;20417;-54
2022/11/28 12:27:08;;;;;;;18.13;17.13;;;11.20;32.50;;;;;;4994712;28;20413;-54
2022/11/28 12:30:02;;;;;;;16.97;15.87;;;11.20;32.50;;;;;;4994702;28;20429;-54
2022/11/28 12:33:19;;;;;;;18.10;16.87;;;11.30;30.50;;;;;;4994002;28;20572;-52
2022/11/28 12:36:23;;;;;;;17.10;16.00;;;11.30;32.00;;;;;;4973737;28;20893;-55
2022/11/28 12:39:02;;;;;;;16.27;15.30;;;11.40;31.90;;;;;;4993771;28;20799;-54
2022/11/28 12:41:52;;;;;;;16.53;15.57;;;11.50;31.30;;;;;;4994080;28;20948;-53
2022/11/28 12:44:30;;;;;;;17.33;16.33;;;11.50;31.10;;;;;;4994425;28;20417;-54
2022/11/28 12:47:10;;;;;;;17.83;16.40;;;11.60;31.10;;;;;;4992355;28;20451;-53
2022/11/28 12:50:03;;;;;;;17.57;16.27;;;11.70;31.10;;;;;;4993816;28;20801;-52
2022/11/28 12:53:10;;;;;;;18.30;16.90;;;11.60;32.10;;;;;;4994850;28;20405;-54
2022/11/28 12:55:55;;;;;;;17.70;16.50;;;11.60;32.10;;;;;;4992943;28;20453;-54